»·PEaware :: GDS29 KPHX-KLAX

GDS29 :: KPHX-KLAX

FLIGHT INFORMATION

Flight Status: Arrived
Operator: Unknown
More flights by this operator :: More flights under this callsign
Pilot: Ryan B. (8502)
Aircraft: BOEING 727-200
(B722)
More flights by this aircraft type
Origin: KPHX Phoenix Sky Harbor Intl
United States
Destination: KLAX Los Angeles Intl
United States
More flights between these airports :: More routes between these airports
Route: +IZZZO6 MESSI PKE TNP SEAVU2
File this flight plan on PilotEdge
Remarks:
Altitude:
(Current/Filed)
40,000ft
Speed:
(Current/Filed)
436kts
Departed: 17-Oct-17 04:04 PM
Arrived: 17-Oct-17 04:59 PM
Distance/Time
Traveled:
321nm/0:55
Distance/Time
To Go:
Arrived

Flight Plot

Page will automatically refresh every two minutes.

Flight plan parsing failed; only flown route is shown


Map Options




Map Legend


Flown Route
Filed Route
Departure Airport
Arrival Airport
Navaid (VOR, NDB)
Fix

Horizontal Profiles

Position Reports

Time Latitude Longitude Heading Altitude Ground
Speed
17-Oct-17 15:42 33.427212 -112.013923 360 1122ft 0kts
17-Oct-17 15:43 33.427212 -112.013923 360 1122ft 0kts
17-Oct-17 15:44 33.427212 -112.013923 360 1122ft 0kts
17-Oct-17 15:45 33.427212 -112.013923 360 1122ft 0kts
17-Oct-17 15:46 33.427212 -112.013923 360 1122ft 0kts
17-Oct-17 15:47 33.427212 -112.013923 360 1122ft 0kts
17-Oct-17 15:48 33.427212 -112.013923 360 1122ft 0kts
17-Oct-17 15:49 33.427212 -112.013923 360 1122ft 0kts
17-Oct-17 15:50 33.427212 -112.013923 360 1122ft 0kts
17-Oct-17 15:51 33.427212 -112.013923 360 1122ft 0kts
17-Oct-17 15:52 33.427212 -112.013923 360 1122ft 0kts
17-Oct-17 15:53 33.427212 -112.013923 360 1122ft 0kts
17-Oct-17 15:54 33.427212 -112.013923 360 1122ft 0kts
17-Oct-17 15:55 33.427212 -112.013923 360 1122ft 0kts
17-Oct-17 15:56 33.427212 -112.013923 360 1122ft 0kts
17-Oct-17 15:57 33.427212 -112.013923 360 1122ft 0kts
17-Oct-17 15:58 33.427212 -112.013923 359 1122ft 0kts
17-Oct-17 15:59 33.427212 -112.013923 359 1122ft 0kts
17-Oct-17 16:00 33.427266 -112.013923 0 1122ft 0kts
17-Oct-17 16:01 33.427707 -112.013585 73 1122ft 9kts
17-Oct-17 16:02 33.427729 -112.007827 88 1124ft 21kts
17-Oct-17 16:03 33.427868 -112.005393 43 1124ft 8kts
17-Oct-17 16:04 33.429952 -112.001516 91 1127ft 23kts
17-Oct-17 16:05 33.430127 -111.993550 41 1127ft 12kts
17-Oct-17 16:06 33.431044 -111.993792 268 1127ft 0kts
17-Oct-17 16:07 33.431044 -111.993792 268 1127ft 0kts
17-Oct-17 16:08 33.431044 -111.993792 268 1127ft 0kts
17-Oct-17 16:09 33.430895 -112.017131 270 1678ft 160kts
17-Oct-17 16:10 33.432474 -112.071842 272 4029ft 184kts
17-Oct-17 16:11 33.434952 -112.147152 272 6152ft 270kts
17-Oct-17 16:12 33.437773 -112.239644 273 10112ft 290kts
17-Oct-17 16:13 33.441117 -112.349295 273 12338ft 369kts
17-Oct-17 16:14 33.444894 -112.479292 273 15354ft 404kts
17-Oct-17 16:15 33.448528 -112.615209 273 18866ft 418kts
17-Oct-17 16:16 33.450076 -112.745876 273 23730ft 377kts
17-Oct-17 16:17 33.472415 -112.863771 292 26865ft 362kts
17-Oct-17 16:18 33.509365 -112.971146 291 30365ft 324kts
17-Oct-17 16:19 33.542829 -113.067648 290 32460ft 314kts
17-Oct-17 16:20 33.576356 -113.164376 290 33751ft 325kts
17-Oct-17 16:21 33.612418 -113.268524 291 34618ft 349kts
17-Oct-17 16:22 33.650663 -113.379328 291 35444ft 373kts
17-Oct-17 16:23 33.691715 -113.498617 291 36071ft 401kts
17-Oct-17 16:24 33.734588 -113.623714 291 37510ft 406kts
17-Oct-17 16:25 33.777186 -113.748765 290 39050ft 405kts
17-Oct-17 16:26 33.819911 -113.872947 291 39967ft 404kts
17-Oct-17 16:27 33.863522 -113.998890 291 39993ft 418kts
17-Oct-17 16:28 33.878249 -114.138768 268 40005ft 439kts
17-Oct-17 16:29 33.879466 -114.286324 271 39971ft 442kts
17-Oct-17 16:30 33.884094 -114.434272 272 39970ft 443kts
17-Oct-17 16:31 33.889091 -114.581115 272 39966ft 443kts
17-Oct-17 16:32 33.891884 -114.728204 271 39972ft 443kts
17-Oct-17 16:33 33.895882 -114.875722 271 39972ft 443kts
17-Oct-17 16:34 33.900474 -115.023600 271 39969ft 444kts
17-Oct-17 16:35 33.905068 -115.172491 271 39969ft 448kts
17-Oct-17 16:36 33.909419 -115.322109 271 39950ft 448kts
17-Oct-17 16:37 33.913610 -115.471950 271 39923ft 448kts
17-Oct-17 16:38 33.917652 -115.621818 271 39734ft 448kts
17-Oct-17 16:39 33.921441 -115.768455 270 37508ft 439kts
17-Oct-17 16:40 33.925018 -115.913529 270 35326ft 432kts
17-Oct-17 16:41 33.928439 -116.059137 270 33153ft 438kts
17-Oct-17 16:42 33.935760 -116.205897 272 30938ft 444kts
17-Oct-17 16:43 33.940000 -116.349960 271 28655ft 441kts
17-Oct-17 16:44 33.943071 -116.494744 271 26305ft 426kts
17-Oct-17 16:45 33.945709 -116.634780 272 24085ft 413kts
17-Oct-17 16:46 33.948074 -116.768919 271 22014ft 401kts
17-Oct-17 16:47 33.950258 -116.901069 271 19999ft 390kts
17-Oct-17 16:48 33.952263 -117.029819 271 18022ft 378kts
17-Oct-17 16:49 33.949842 -117.152223 265 17040ft 351kts
17-Oct-17 16:50 33.940168 -117.268364 264 15696ft 345kts
17-Oct-17 16:51 33.935192 -117.380968 284 13887ft 335kts
17-Oct-17 16:52 33.969372 -117.482353 293 12224ft 326kts
17-Oct-17 16:53 34.004562 -117.581631 293 10556ft 320kts
17-Oct-17 16:54 34.007107 -117.678923 265 10159ft 275kts
17-Oct-17 16:55 33.998706 -117.769164 264 9933ft 272kts
17-Oct-17 16:56 33.989847 -117.860298 263 8504ft 276kts
17-Oct-17 16:57 33.980912 -117.951525 263 7330ft 268kts
17-Oct-17 16:58 33.972017 -118.041512 263 5840ft 272kts
17-Oct-17 16:59 33.963283 -118.128904 262 4320ft 252kts
17-Oct-17 17:00 33.955211 -118.208876 262 2970ft 230kts
17-Oct-17 17:01 33.948057 -118.279236 262 1893ft 181kts
17-Oct-17 17:02 33.942438 -118.333832 261 975ft 155kts
17-Oct-17 17:03 33.937519 -118.381048 261 165ft 121kts
17-Oct-17 17:04 33.934561 -118.402145 199 123ft 11kts

Navigation Log

Ident Type
Flight plan parsing failed, navigation log unavailable